Time;durP1;ratioP1;P1;durP2;ratioP2;P2;SDS_P1;SDS_P2;PMS_P1;PMS_P2;Temp;Humidity;BMP_temperature;BMP_pressure;BME280_temperature;BME280_humidity;BME280_pressure;Samples;Min_cycle;Max_cycle;Signal;HPM_P1;HPM_P2
2023/07/10 00:00:55;;;;;;;3.78;2.10;;;;;;;;;;5053146;28;20025;-52
2023/07/10 00:03:22;;;;;;;3.83;2.00;;;;;;;;;;5053195;28;20055;-51
2023/07/10 00:05:49;;;;;;;5.03;2.13;;;;;;;;;;5053055;28;20044;-53
2023/07/10 00:08:16;;;;;;;6.32;2.30;;;;;;;;;;5053092;28;20491;-51
2023/07/10 00:10:44;;;;;;;4.60;2.30;;;;;;;;;;5052943;28;20031;-51
2023/07/10 00:13:11;;;;;;;4.57;2.45;;;;;;;;;;5052949;28;20040;-49
2023/07/10 00:15:39;;;;;;;4.93;2.50;;;;;;;;;;5052922;28;20106;-50
2023/07/10 00:18:14;;;;;;;4.00;2.33;;;;;;;;;;5052904;28;20068;-53
2023/07/10 00:20:41;;;;;;;4.90;2.65;;;;;;;;;;5052601;28;20486;-52
2023/07/10 00:23:08;;;;;;;4.35;2.25;;;;;;;;;;5052644;28;20389;-50
2023/07/10 00:25:38;;;;;;;3.92;2.50;;;;;;;;;;5052469;28;20045;-53
2023/07/10 00:28:13;;;;;;;6.55;3.03;;;;;;;;;;5052705;28;20029;-53
2023/07/10 00:30:40;;;;;;;4.60;2.22;;;;;;;;;;5052595;28;20029;-51
2023/07/10 00:33:10;;;;;;;6.93;2.72;;;;;;;;;;5052411;28;20044;-49
2023/07/10 00:35:37;;;;;;;4.97;2.38;;;;;;;;;;5052303;28;20040;-50
2023/07/10 00:38:14;;;;;;;6.13;3.00;;;;;;;;;;5052472;28;20108;-52
2023/07/10 00:40:45;;;;;;;5.13;2.42;;;;;;;;;;5052222;28;20037;-52
2023/07/10 00:43:21;;;;;;;6.45;3.13;;;;;;;;;;5052288;28;20033;-51
2023/07/10 00:45:48;;;;;;;8.00;3.03;;;;;;;;;;5052249;28;20055;-52
2023/07/10 00:48:15;;;;;;;4.07;2.75;;;;;;;;;;5052315;28;20106;-50
2023/07/10 00:50:48;;;;;;;6.88;3.05;;;;;;;;;;5052182;28;20017;-50
2023/07/10 00:53:14;;;;;;;;;;;;;;;;;;5052842;28;20052;-52
2023/07/10 00:55:43;;;;;;;3.95;3.13;;;;;;;;;;5052261;28;19909;-51
2023/07/10 00:58:28;;;;;;;4.53;2.75;;;;;;;;;;5051957;28;20025;-51
2023/07/10 01:01:07;;;;;;;5.28;2.80;;;;;;;;;;5052353;28;20028;-50
2023/07/10 01:03:35;;;;;;;5.78;3.20;;;;;;;;;;5052043;28;20053;-50
2023/07/10 01:06:06;;;;;;;6.57;3.15;;;;;;;;;;5051356;28;20032;-52
2023/07/10 01:08:34;;;;;;;4.80;2.85;;;;;;;;;;5051985;28;20024;-51
2023/07/10 01:11:01;;;;;;;6.20;3.30;;;;;;;;;;5051769;28;20033;-48
2023/07/10 01:13:28;;;;;;;5.28;3.70;;;;;;;;;;5051973;28;20079;-51
2023/07/10 01:15:55;;;;;;;6.28;3.83;;;;;;;;;;5051861;28;20452;-52
2023/07/10 01:18:24;;;;;;;5.15;3.70;;;;;;;;;;5051627;28;20398;-50
2023/07/10 01:20:53;;;;;;;7.20;3.85;;;;;;;;;;5051573;28;20025;-50
2023/07/10 01:23:20;;;;;;;5.68;3.35;;;;;;;;;;5051778;28;20029;-51
2023/07/10 01:25:56;;;;;;;7.00;3.78;;;;;;;;;;5051575;28;20171;-52
2023/07/10 01:28:24;;;;;;;7.57;3.88;;;;;;;;;;5051706;28;20021;-49
2023/07/10 01:30:52;;;;;;;4.85;3.85;;;;;;;;;;5051646;28;20029;-53
2023/07/10 01:33:29;;;;;;;6.32;3.63;;;;;;;;;;5051453;28;20045;-49
2023/07/10 01:35:58;;;;;;;5.65;3.85;;;;;;;;;;5051617;28;20041;-48
2023/07/10 01:38:38;;;;;;;7.57;3.85;;;;;;;;;;5051534;28;20057;-52
2023/07/10 01:41:17;;;;;;;6.70;3.67;;;;;;;;;;5051441;28;20569;-53
2023/07/10 01:43:44;;;;;;;6.97;4.15;;;;;;;;;;5051487;28;20033;-51
2023/07/10 01:46:21;;;;;;;7.07;4.10;;;;;;;;;;5051534;28;20029;-48
2023/07/10 01:48:48;;;;;;;7.03;4.13;;;;;;;;;;5051472;28;20527;-48
2023/07/10 01:51:16;;;;;;;6.72;4.20;;;;;;;;;;5051366;28;20075;-53
2023/07/10 01:53:45;;;;;;;5.38;4.13;;;;;;;;;;5051449;28;20074;-50
2023/07/10 01:56:13;;;;;;;5.60;3.83;;;;;;;;;;5051427;28;20029;-51
2023/07/10 01:58:40;;;;;;;6.93;4.03;;;;;;;;;;5051335;28;20025;-49
2023/07/10 02:01:07;;;;;;;5.25;3.58;;;;;;;;;;5051301;28;20075;-50
2023/07/10 02:03:34;;;;;;;5.10;3.83;;;;;;;;;;5051227;28;20399;-51
2023/07/10 02:06:02;;;;;;;4.88;4.20;;;;;;;;;;5051326;28;20021;-51
2023/07/10 02:08:29;;;;;;;5.30;3.95;;;;;;;;;;5051114;28;20399;-50
2023/07/10 02:10:56;;;;;;;5.00;3.67;;;;;;;;;;5051153;28;20033;-51
2023/07/10 02:13:23;;;;;;;5.30;3.97;;;;;;;;;;5051237;28;20127;-47
2023/07/10 02:15:51;;;;;;;5.97;3.60;;;;;;;;;;5051213;28;20025;-52
2023/07/10 02:18:18;;;;;;;6.20;3.60;;;;;;;;;;5053994;28;20487;-49
2023/07/10 02:20:45;;;;;;;4.88;3.70;;;;;;;;;;5054943;28;20039;-53
2023/07/10 02:23:12;;;;;;;4.50;3.67;;;;;;;;;;5055189;28;20029;-50
2023/07/10 02:25:39;;;;;;;5.68;4.10;;;;;;;;;;5054893;28;20082;-51
2023/07/10 02:28:07;;;;;;;5.68;3.90;;;;;;;;;;5054962;28;20487;-49
2023/07/10 02:30:37;;;;;;;7.03;4.07;;;;;;;;;;5054866;28;20040;-49
2023/07/10 02:33:05;;;;;;;5.40;4.10;;;;;;;;;;5054509;28;20084;-53
2023/07/10 02:35:32;;;;;;;5.95;4.07;;;;;;;;;;5054850;28;20040;-53
2023/07/10 02:37:59;;;;;;;7.32;3.95;;;;;;;;;;5054787;28;20052;-51
2023/07/10 02:40:26;;;;;;;5.38;3.85;;;;;;;;;;5054652;28;20027;-51
2023/07/10 02:42:53;;;;;;;6.15;3.80;;;;;;;;;;5054652;28;20032;-48
2023/07/10 02:45:20;;;;;;;4.90;3.78;;;;;;;;;;5054575;28;20033;-53
2023/07/10 02:47:47;;;;;;;5.43;3.85;;;;;;;;;;5054621;28;20060;-51
2023/07/10 02:50:14;;;;;;;5.60;3.88;;;;;;;;;;5054450;28;20103;-48
2023/07/10 02:52:41;;;;;;;6.28;3.72;;;;;;;;;;5054517;28;20493;-50
2023/07/10 02:55:08;;;;;;;5.07;4.20;;;;;;;;;;5054412;28;20025;-52
2023/07/10 02:57:35;;;;;;;5.55;4.03;;;;;;;;;;5054447;28;20033;-53
2023/07/10 03:00:04;;;;;;;4.72;3.92;;;;;;;;;;5054167;28;20503;-48
2023/07/10 03:02:31;;;;;;;5.18;3.67;;;;;;;;;;5054350;28;20029;-49
2023/07/10 03:04:59;;;;;;;5.53;4.00;;;;;;;;;;5054238;28;20041;-51
2023/07/10 03:07:26;;;;;;;6.65;4.15;;;;;;;;;;5054205;28;20475;-48
2023/07/10 03:09:53;;;;;;;4.88;3.80;;;;;;;;;;5054142;28;20029;-49
2023/07/10 03:12:21;;;;;;;5.60;3.88;;;;;;;;;;5054158;28;20029;-48
2023/07/10 03:14:49;;;;;;;5.50;3.72;;;;;;;;;;5053917;28;20040;-49
2023/07/10 03:17:16;;;;;;;4.88;3.97;;;;;;;;;;5053872;28;20409;-49
2023/07/10 03:19:43;;;;;;;7.03;4.00;;;;;;;;;;5053933;28;20060;-49
2023/07/10 03:22:10;;;;;;;4.50;3.60;;;;;;;;;;5053807;28;20490;-49
2023/07/10 03:24:37;;;;;;;6.85;3.78;;;;;;;;;;5053861;28;20029;-49
2023/07/10 03:27:05;;;;;;;6.50;4.43;;;;;;;;;;5053899;28;20033;-48
2023/07/10 03:29:32;;;;;;;5.97;4.38;;;;;;;;;;5052937;28;20037;-51
2023/07/10 03:31:59;;;;;;;7.82;4.60;;;;;;;;;;5053566;28;20024;-50
2023/07/10 03:34:26;;;;;;;5.53;4.05;;;;;;;;;;5054035;28;20044;-50
2023/07/10 03:36:53;;;;;;;5.18;4.00;;;;;;;;;;5053675;28;20024;-50
2023/07/10 03:39:20;;;;;;;5.63;4.10;;;;;;;;;;5053547;28;20032;-53
2023/07/10 03:41:47;;;;;;;6.72;4.18;;;;;;;;;;5053289;28;20394;-49
2023/07/10 03:44:14;;;;;;;6.07;4.20;;;;;;;;;;5053488;28;20395;-51
2023/07/10 03:46:41;;;;;;;7.30;4.40;;;;;;;;;;5053545;28;20367;-51
2023/07/10 03:49:08;;;;;;;5.88;4.15;;;;;;;;;;5053332;28;20035;-54
2023/07/10 03:51:35;;;;;;;5.65;4.72;;;;;;;;;;5053355;28;20522;-51
2023/07/10 03:54:02;;;;;;;6.82;4.13;;;;;;;;;;5053345;28;20067;-50
2023/07/10 03:56:29;;;;;;;5.55;4.15;;;;;;;;;;5053329;28;20036;-48
2023/07/10 03:58:56;;;;;;;5.65;4.10;;;;;;;;;;5053194;28;20131;-48
2023/07/10 04:01:24;;;;;;;6.55;4.20;;;;;;;;;;5053274;28;20051;-49
2023/07/10 04:03:51;;;;;;;5.10;3.92;;;;;;;;;;5053035;28;20078;-52
2023/07/10 04:06:18;;;;;;;7.28;4.28;;;;;;;;;;5053154;28;20021;-51
2023/07/10 04:08:46;;;;;;;6.35;4.05;;;;;;;;;;5053101;28;20386;-51
2023/07/10 04:11:17;;;;;;;5.75;4.07;;;;;;;;;;5053053;28;20029;-52
2023/07/10 04:13:44;;;;;;;5.75;4.32;;;;;;;;;;5052959;28;20475;-52
2023/07/10 04:16:13;;;;;;;6.05;4.18;;;;;;;;;;5052957;28;20163;-49
2023/07/10 04:18:41;;;;;;;5.10;4.00;;;;;;;;;;5052927;28;20059;-52
2023/07/10 04:21:28;;;;;;;6.00;3.88;;;;;;;;;;5052795;28;20029;-53
2023/07/10 04:23:55;;;;;;;5.40;4.00;;;;;;;;;;5052609;28;20390;-51
2023/07/10 04:26:23;;;;;;;6.68;4.30;;;;;;;;;;5052733;28;20029;-53
2023/07/10 04:28:52;;;;;;;5.07;3.95;;;;;;;;;;5052908;28;20499;-49
2023/07/10 04:31:19;;;;;;;6.45;4.53;;;;;;;;;;5052613;28;20100;-51
2023/07/10 04:33:46;;;;;;;6.53;3.90;;;;;;;;;;5052428;28;20124;-52
2023/07/10 04:36:13;;;;;;;6.05;4.40;;;;;;;;;;5052516;28;20032;-51
2023/07/10 04:38:40;;;;;;;6.35;4.45;;;;;;;;;;5052502;28;20051;-52
2023/07/10 04:41:11;;;;;;;8.73;4.47;;;;;;;;;;5051357;28;20052;-52
2023/07/10 04:43:38;;;;;;;5.97;4.15;;;;;;;;;;5052411;28;20108;-52
2023/07/10 04:46:06;;;;;;;4.97;3.90;;;;;;;;;;5052075;28;20058;-54
2023/07/10 04:48:34;;;;;;;5.15;4.18;;;;;;;;;;5052312;28;20490;-51
2023/07/10 04:51:03;;;;;;;6.15;4.28;;;;;;;;;;5052189;28;20391;-53
2023/07/10 04:53:30;;;;;;;6.47;4.38;;;;;;;;;;5052077;28;20047;-50
2023/07/10 04:55:57;;;;;;;6.75;4.47;;;;;;;;;;5052219;28;20549;-51
2023/07/10 04:58:25;;;;;;;5.43;4.20;;;;;;;;;;5052094;28;20376;-51
2023/07/10 05:00:55;;;;;;;5.80;4.15;;;;;;;;;;5052008;28;20155;-51
2023/07/10 05:03:22;;;;;;;5.78;4.20;;;;;;;;;;5052113;28;20096;-49
2023/07/10 05:05:56;;;;;;;5.88;4.35;;;;;;;;;;5045980;28;20056;-52
2023/07/10 05:08:24;;;;;;;6.43;3.92;;;;;;;;;;5051963;28;20567;-50
2023/07/10 05:10:51;;;;;;;6.07;4.43;;;;;;;;;;5051926;28;20033;-50
2023/07/10 05:13:19;;;;;;;6.95;4.30;;;;;;;;;;5051929;28;20112;-49
2023/07/10 05:15:46;;;;;;;4.70;4.07;;;;;;;;;;5051844;28;20029;-53
2023/07/10 05:18:14;;;;;;;6.82;4.28;;;;;;;;;;5051898;28;20052;-51
2023/07/10 05:20:41;;;;;;;6.07;4.45;;;;;;;;;;5051663;28;20033;-50
2023/07/10 05:23:08;;;;;;;6.45;4.18;;;;;;;;;;5051779;28;20584;-49
2023/07/10 05:25:35;;;;;;;6.78;4.10;;;;;;;;;;5051540;28;20438;-50
2023/07/10 05:28:02;;;;;;;5.72;3.92;;;;;;;;;;5051720;28;20478;-52
2023/07/10 05:30:29;;;;;;;6.20;4.32;;;;;;;;;;5051571;28;20082;-50
2023/07/10 05:32:56;;;;;;;6.47;4.55;;;;;;;;;;5051483;28;20067;-51
2023/07/10 05:35:23;;;;;;;5.82;4.45;;;;;;;;;;5051473;28;20103;-51
2023/07/10 05:37:50;;;;;;;5.85;4.22;;;;;;;;;;5051622;28;20103;-54
2023/07/10 05:40:18;;;;;;;4.32;3.92;;;;;;;;;;5051477;28;20025;-52
2023/07/10 05:42:45;;;;;;;5.88;4.55;;;;;;;;;;5051548;28;20025;-48
2023/07/10 05:45:12;;;;;;;5.70;3.95;;;;;;;;;;5051447;28;20033;-51
2023/07/10 05:47:39;;;;;;;5.18;4.10;;;;;;;;;;5051532;28;20036;-50
2023/07/10 05:50:06;;;;;;;5.03;3.70;;;;;;;;;;5051328;28;20048;-51
2023/07/10 05:52:33;;;;;;;4.68;3.50;;;;;;;;;;5053113;28;20053;-50
2023/07/10 05:55:00;;;;;;;5.22;4.45;;;;;;;;;;5055567;28;20056;-50
2023/07/10 05:57:27;;;;;;;5.45;4.15;;;;;;;;;;5055582;28;20053;-53
2023/07/10 05:59:54;;;;;;;5.32;3.70;;;;;;;;;;5055439;28;20445;-48
2023/07/10 06:02:21;;;;;;;5.50;4.30;;;;;;;;;;5054313;28;20033;-48
2023/07/10 06:04:48;;;;;;;6.15;4.43;;;;;;;;;;5055387;28;20532;-51
2023/07/10 06:07:15;;;;;;;5.75;4.22;;;;;;;;;;5055653;28;20119;-51
2023/07/10 06:09:42;;;;;;;5.38;4.03;;;;;;;;;;5055254;28;20100;-49
2023/07/10 06:12:09;;;;;;;5.43;4.22;;;;;;;;;;5055267;28;20029;-50
2023/07/10 06:14:36;;;;;;;5.95;4.18;;;;;;;;;;5055269;28;20057;-50
2023/07/10 06:17:04;;;;;;;5.20;4.03;;;;;;;;;;5055155;28;20060;-51
2023/07/10 06:19:31;;;;;;;4.85;3.85;;;;;;;;;;5055063;28;20441;-51
2023/07/10 06:22:08;;;;;;;4.78;3.53;;;;;;;;;;5055122;28;20025;-52
2023/07/10 06:24:35;;;;;;;6.05;4.38;;;;;;;;;;5054958;28;20441;-49
2023/07/10 06:27:02;;;;;;;6.68;3.50;;;;;;;;;;5055055;28;20036;-51
2023/07/10 06:29:31;;;;;;;4.63;3.50;;;;;;;;;;5054919;28;20031;-51
2023/07/10 06:31:58;;;;;;;5.93;4.13;;;;;;;;;;5201402;22;22002;-54
2023/07/10 06:34:26;;;;;;;4.53;3.70;;;;;;;;;;5055552;28;20021;-56
2023/07/10 06:36:53;;;;;;;5.32;3.65;;;;;;;;;;5055167;28;20485;-55
2023/07/10 06:39:20;;;;;;;5.50;3.95;;;;;;;;;;5054812;28;20028;-55
2023/07/10 06:41:47;;;;;;;5.10;3.95;;;;;;;;;;5054957;28;20049;-55
2023/07/10 06:44:13;;;;;;;5.10;3.60;;;;;;;;;;5054667;28;20140;-55
2023/07/10 06:46:40;;;;;;;5.38;3.88;;;;;;;;;;5054675;28;20024;-56
2023/07/10 06:49:07;;;;;;;6.18;3.67;;;;;;;;;;5054431;28;20040;-55
2023/07/10 06:51:37;;;;;;;5.20;3.70;;;;;;;;;;5054465;28;20021;-56
2023/07/10 06:54:04;;;;;;;5.95;3.70;;;;;;;;;;5054534;28;20029;-56
2023/07/10 06:56:32;;;;;;;4.90;3.70;;;;;;;;;;5054514;28;20111;-55
2023/07/10 06:58:59;;;;;;;4.50;3.50;;;;;;;;;;5054304;28;20029;-54
2023/07/10 07:01:26;;;;;;;5.43;3.55;;;;;;;;;;5054302;28;20049;-55
2023/07/10 07:03:53;;;;;;;4.30;3.20;;;;;;;;;;5053300;28;20589;-55
2023/07/10 07:06:20;;;;;;;6.03;3.75;;;;;;;;;;5054335;28;20028;-54
2023/07/10 07:08:47;;;;;;;4.45;3.08;;;;;;;;;;5054264;28;20032;-56
2023/07/10 07:11:14;;;;;;;4.18;3.00;;;;;;;;;;5054098;28;20505;-56
2023/07/10 07:13:41;;;;;;;3.85;3.17;;;;;;;;;;5054175;28;20032;-56
2023/07/10 07:16:08;;;;;;;4.70;3.28;;;;;;;;;;5054459;28;20037;-56
2023/07/10 07:18:35;;;;;;;4.43;3.40;;;;;;;;;;5054066;28;20460;-54
2023/07/10 07:21:03;;;;;;;3.75;2.97;;;;;;;;;;5053834;28;20021;-56
2023/07/10 07:23:30;;;;;;;4.00;3.38;;;;;;;;;;5053968;28;20095;-55
2023/07/10 07:25:58;;;;;;;3.88;2.95;;;;;;;;;;5053822;28;20494;-56
2023/07/10 07:28:25;;;;;;;3.83;2.90;;;;;;;;;;5053876;28;20021;-56
2023/07/10 07:30:53;;;;;;;3.58;3.13;;;;;;;;;;5053785;28;20482;-54
2023/07/10 07:33:20;;;;;;;3.90;3.08;;;;;;;;;;5053843;28;20037;-56
2023/07/10 07:35:48;;;;;;;5.43;3.38;;;;;;;;;;5053726;28;20037;-56
2023/07/10 07:38:15;;;;;;;4.93;2.97;;;;;;;;;;5053719;28;20086;-56
2023/07/10 07:40:42;;;;;;;4.65;3.58;;;;;;;;;;5053646;28;20021;-56
2023/07/10 07:43:09;;;;;;;4.03;3.25;;;;;;;;;;5053647;28;20025;-56
2023/07/10 07:45:36;;;;;;;4.57;3.38;;;;;;;;;;5053471;28;20029;-56
2023/07/10 07:48:03;;;;;;;3.75;2.78;;;;;;;;;;5053559;28;20442;-56
2023/07/10 07:50:30;;;;;;;4.00;3.08;;;;;;;;;;5053525;28;20029;-54
2023/07/10 07:52:57;;;;;;;4.10;3.20;;;;;;;;;;5053337;28;20536;-55
2023/07/10 07:55:24;;;;;;;3.85;2.95;;;;;;;;;;5053430;28;20025;-55
2023/07/10 07:57:51;;;;;;;4.72;3.28;;;;;;;;;;5053356;28;20028;-54
2023/07/10 08:00:18;;;;;;;3.58;3.03;;;;;;;;;;5053174;28;20781;-55
2023/07/10 08:02:45;;;;;;;3.72;2.80;;;;;;;;;;5053053;28;20382;-55
2023/07/10 08:05:12;;;;;;;4.45;3.05;;;;;;;;;;5053130;28;20037;-55
2023/07/10 08:07:39;;;;;;;5.15;3.10;;;;;;;;;;5053184;28;20029;-55
2023/07/10 08:10:06;;;;;;;3.67;3.05;;;;;;;;;;5053093;28;20032;-55
2023/07/10 08:12:33;;;;;;;4.18;2.90;;;;;;;;;;5052991;28;20102;-56
2023/07/10 08:15:00;;;;;;;3.83;2.60;;;;;;;;;;5052584;28;20063;-56
2023/07/10 08:17:27;;;;;;;3.72;2.80;;;;;;;;;;5052964;28;20024;-56
2023/07/10 08:19:54;;;;;;;4.68;2.90;;;;;;;;;;5052850;28;20104;-56
2023/07/10 08:22:21;;;;;;;3.40;2.70;;;;;;;;;;5052798;28;20017;-56
2023/07/10 08:24:48;;;;;;;3.30;2.70;;;;;;;;;;5052823;28;20036;-56
2023/07/10 08:27:15;;;;;;;3.72;2.97;;;;;;;;;;5052788;28;20021;-56
2023/07/10 08:29:42;;;;;;;3.40;2.65;;;;;;;;;;5053045;28;20036;-55
2023/07/10 08:32:09;;;;;;;3.08;2.72;;;;;;;;;;5052478;28;20577;-56
2023/07/10 08:34:37;;;;;;;4.43;3.10;;;;;;;;;;5052453;28;20037;-55
2023/07/10 08:37:04;;;;;;;3.05;2.50;;;;;;;;;;5052494;28;20072;-55
2023/07/10 08:39:30;;;;;;;3.40;2.78;;;;;;;;;;5052543;28;20020;-56
2023/07/10 08:42:01;;;;;;;3.35;2.63;;;;;;;;;;5052459;28;20025;-54
2023/07/10 08:44:32;;;;;;;3.75;2.85;;;;;;;;;;5052376;28;20445;-56
2023/07/10 08:47:01;;;;;;;4.18;2.95;;;;;;;;;;5052311;28;20025;-54
2023/07/10 08:49:35;;;;;;;3.63;2.70;;;;;;;;;;5052383;28;20017;-56
2023/07/10 08:52:11;;;;;;;4.18;2.78;;;;;;;;;;5052220;28;20032;-55
2023/07/10 08:54:38;;;;;;;3.55;2.90;;;;;;;;;;5052293;28;20089;-56
2023/07/10 08:57:20;;;;;;;3.38;2.90;;;;;;;;;;5052260;28;20081;-56
2023/07/10 08:59:56;;;;;;;3.50;2.70;;;;;;;;;;5052173;28;20017;-53
2023/07/10 09:02:26;;;;;;;4.25;3.05;;;;;;;;;;5052024;28;20035;-56
2023/07/10 09:04:53;;;;;;;3.75;2.80;;;;;;;;;;5052183;28;20088;-54
2023/07/10 09:07:21;;;;;;;3.38;2.55;;;;;;;;;;5052066;28;20021;-55
2023/07/10 09:09:54;;;;;;;4.53;2.63;;;;;;;;;;5052018;28;20378;-53
2023/07/10 09:12:24;;;;;;;3.22;2.72;;;;;;;;;;5051903;28;20029;-56
2023/07/10 09:15:03;;;;;;;4.20;2.70;;;;;;;;;;5045948;28;20037;-54
2023/07/10 09:17:30;;;;;;;4.40;2.85;;;;;;;;;;5051906;28;20052;-56
2023/07/10 09:20:03;;;;;;;3.00;2.60;;;;;;;;;;5051842;28;20087;-55
2023/07/10 09:22:32;;;;;;;3.20;2.58;;;;;;;;;;5051564;28;20078;-56
2023/07/10 09:24:59;;;;;;;2.97;2.47;;;;;;;;;;5051750;28;20482;-56
2023/07/10 09:27:26;;;;;;;3.15;2.70;;;;;;;;;;5051144;28;20096;-55
2023/07/10 09:29:55;;;;;;;3.58;2.45;;;;;;;;;;5051728;28;20028;-55
2023/07/10 09:32:22;;;;;;;2.50;2.30;;;;;;;;;;5051429;28;20410;-55
2023/07/10 09:34:53;;;;;;;4.18;2.65;;;;;;;;;;5051912;28;20044;-54
2023/07/10 09:37:22;;;;;;;2.83;2.25;;;;;;;;;;5051648;28;20381;-55
2023/07/10 09:39:49;;;;;;;3.25;2.63;;;;;;;;;;5051561;28;20536;-55
2023/07/10 09:42:18;;;;;;;4.05;2.50;;;;;;;;;;5051495;28;20518;-55
2023/07/10 09:44:52;;;;;;;3.45;2.55;;;;;;;;;;5051502;28;20079;-54
2023/07/10 09:47:20;;;;;;;3.78;2.42;;;;;;;;;;5051545;28;20021;-55
2023/07/10 09:49:55;;;;;;;2.95;2.20;;;;;;;;;;5051466;28;20083;-53
2023/07/10 09:52:24;;;;;;;2.90;2.40;;;;;;;;;;5051508;28;20442;-56
2023/07/10 09:54:58;;;;;;;3.00;2.33;;;;;;;;;;5051275;28;20067;-56
2023/07/10 09:57:25;;;;;;;3.35;2.35;;;;;;;;;;5051391;28;20017;-55
2023/07/10 09:59:56;;;;;;;3.10;2.40;;;;;;;;;;5051433;28;20025;-55
2023/07/10 10:02:23;;;;;;;3.40;2.53;;;;;;;;;;5051311;28;20021;-56
2023/07/10 10:05:13;;;;;;;2.97;2.33;;;;;;;;;;5051328;28;20112;-55
2023/07/10 10:07:42;;;;;;;2.70;2.10;;;;;;;;;;5043696;28;20048;-56
2023/07/10 10:10:29;;;;;;;2.67;2.22;;;;;;;;;;5051326;28;20071;-56
2023/07/10 10:13:02;;;;;;;4.07;2.30;;;;;;;;;;5051290;28;20079;-55
2023/07/10 10:15:47;;;;;;;2.83;2.30;;;;;;;;;;5051345;28;20021;-55
2023/07/10 10:18:23;;;;;;;3.20;2.30;;;;;;;;;;5051311;28;20021;-54
2023/07/10 10:20:51;;;;;;;3.83;2.30;;;;;;;;;;5051300;28;20453;-55
2023/07/10 10:23:34;;;;;;;2.70;1.98;;;;;;;;;;5051044;28;20044;-56
2023/07/10 10:26:27;;;;;;;2.85;2.25;;;;;;;;;;5051124;28;20029;-55
2023/07/10 10:28:54;;;;;;;;;;;;;;;;;;5028542;28;20041;-56
2023/07/10 10:31:23;;;;;;;2.92;1.80;;;;;;;;;;5050959;28;20020;-54
2023/07/10 10:33:55;;;;;;;3.00;2.45;;;;;;;;;;5051096;28;20029;-55
2023/07/10 10:36:22;;;;;;;2.00;1.80;;;;;;;;;;5051106;28;20056;-54
2023/07/10 10:38:54;;;;;;;2.72;2.38;;;;;;;;;;5052863;28;20060;-56
2023/07/10 10:41:39;;;;;;;2.40;2.00;;;;;;;;;;5054765;28;20049;-52
2023/07/10 10:44:24;;;;;;;2.80;2.05;;;;;;;;;;5054718;28;20017;-56
2023/07/10 10:46:57;;;;;;;3.30;1.90;;;;;;;;;;5054595;28;20485;-52
2023/07/10 10:49:27;;;;;;;3.17;2.08;;;;;;;;;;5054627;28;20025;-55
2023/07/10 10:52:16;;;;;;;2.15;1.83;;;;;;;;;;5054453;28;20029;-55
2023/07/10 10:54:50;;;;;;;2.13;1.75;;;;;;;;;;5054389;28;20072;-56
2023/07/10 10:57:24;;;;;;;1.98;1.63;;;;;;;;;;5054520;28;20032;-54
2023/07/10 10:59:57;;;;;;;2.70;1.80;;;;;;;;;;5054288;28;20074;-54
2023/07/10 11:02:24;;;;;;;2.70;1.95;;;;;;;;;;5054312;28;20029;-55
2023/07/10 11:04:58;;;;;;;2.92;2.05;;;;;;;;;;5054345;28;20539;-55
2023/07/10 11:07:25;;;;;;;1.95;1.45;;;;;;;;;;5054305;28;20021;-55
2023/07/10 11:09:54;;;;;;;2.25;1.90;;;;;;;;;;5054270;28;20482;-56
2023/07/10 11:12:22;;;;;;;2.30;1.70;;;;;;;;;;5054100;28;20067;-56
2023/07/10 11:14:52;;;;;;;2.53;1.90;;;;;;;;;;5054180;28;20036;-55
2023/07/10 11:17:19;;;;;;;1.85;1.65;;;;;;;;;;5054175;28;20104;-55
2023/07/10 11:19:46;;;;;;;2.10;1.63;;;;;;;;;;5036065;28;20459;-55
2023/07/10 11:22:22;;;;;;;1.58;1.45;;;;;;;;;;5053812;28;20028;-56
2023/07/10 11:24:50;;;;;;;2.40;1.83;;;;;;;;;;5053884;28;20029;-55
2023/07/10 11:27:23;;;;;;;1.90;1.63;;;;;;;;;;5053914;28;20032;-56
2023/07/10 11:30:06;;;;;;;3.20;1.70;;;;;;;;;;5053839;28;20031;-55
2023/07/10 11:32:35;;;;;;;2.78;1.90;;;;;;;;;;5053523;28;20425;-55
2023/07/10 11:35:19;;;;;;;1.65;1.55;;;;;;;;;;5053864;28;20398;-53
2023/07/10 11:37:49;;;;;;;2.28;1.92;;;;;;;;;;5053800;28;20032;-55
2023/07/10 11:40:24;;;;;;;2.63;2.10;;;;;;;;;;5053501;28;20028;-56
2023/07/10 11:42:51;;;;;;;2.03;1.55;;;;;;;;;;5053700;28;20017;-55
2023/07/10 11:45:18;;;;;;;3.63;1.75;;;;;;;;;;5053545;28;20047;-55
2023/07/10 11:47:46;;;;;;;3.33;1.60;;;;;;;;;;5053562;28;20405;-56
2023/07/10 11:50:22;;;;;;;2.38;1.58;;;;;;;;;;5052910;28;20540;-55
2023/07/10 11:53:09;;;;;;;2.97;1.90;;;;;;;;;;5053455;28;20021;-55
2023/07/10 11:55:55;;;;;;;2.53;1.83;;;;;;;;;;5043253;28;20044;-56
2023/07/10 11:58:29;;;;;;;3.83;1.65;;;;;;;;;;5053439;28;20391;-56
2023/07/10 12:01:20;;;;;;;2.42;1.58;;;;;;;;;;5053248;28;20032;-54
2023/07/10 12:03:47;;;;;;;2.03;1.70;;;;;;;;;;5046008;28;20486;-56
2023/07/10 12:06:25;;;;;;;2.80;1.50;;;;;;;;;;5052975;28;20041;-56
2023/07/10 12:08:53;;;;;;;1.90;1.50;;;;;;;;;;5053168;28;20016;-55
2023/07/10 12:11:39;;;;;;;3.33;1.80;;;;;;;;;;5053099;28;20022;-55
2023/07/10 12:14:09;;;;;;;2.33;1.77;;;;;;;;;;5053092;28;20024;-55
2023/07/10 12:16:43;;;;;;;2.20;1.50;;;;;;;;;;5053007;28;20021;-56
2023/07/10 12:19:17;;;;;;;2.28;1.60;;;;;;;;;;5052972;28;20029;-56
2023/07/10 12:21:44;;;;;;;3.00;1.55;;;;;;;;;;5052818;28;20096;-55
2023/07/10 12:24:16;;;;;;;2.08;1.45;;;;;;;;;;5052855;28;20152;-56
2023/07/10 12:26:43;;;;;;;2.58;1.50;;;;;;;;;;5052853;28;20474;-55
2023/07/10 12:29:12;;;;;;;2.55;1.45;;;;;;;;;;5035158;28;20067;-56
2023/07/10 12:31:40;;;;;;;1.50;1.38;;;;;;;;;;5046394;28;20127;-55
2023/07/10 12:34:14;;;;;;;4.70;1.58;;;;;;;;;;5052641;28;20048;-56
2023/07/10 12:36:41;;;;;;;4.32;1.60;;;;;;;;;;5052593;28;20025;-55
2023/07/10 12:39:10;;;;;;;4.72;1.70;;;;;;;;;;5052570;28;20475;-55
2023/07/10 12:41:42;;;;;;;4.28;1.67;;;;;;;;;;5052483;28;20472;-56
2023/07/10 12:44:17;;;;;;;2.03;1.63;;;;;;;;;;5052468;28;20151;-56
2023/07/10 12:46:44;;;;;;;2.58;1.30;;;;;;;;;;5052423;28;20032;-55
2023/07/10 12:49:15;;;;;;;3.70;1.58;;;;;;;;;;5052341;28;20070;-56
2023/07/10 12:51:44;;;;;;;3.03;1.55;;;;;;;;;;5052248;28;20482;-55
2023/07/10 12:54:31;;;;;;;2.83;1.52;;;;;;;;;;5052386;28;20104;-54
2023/07/10 12:56:59;;;;;;;3.35;1.30;;;;;;;;;;5052257;28;20544;-55
2023/07/10 12:59:35;;;;;;;2.15;1.30;;;;;;;;;;5052219;28;20055;-56
2023/07/10 13:02:04;;;;;;;4.90;1.45;;;;;;;;;;5051278;28;20538;-55
2023/07/10 13:04:32;;;;;;;3.15;1.65;;;;;;;;;;5052123;28;20035;-55
2023/07/10 13:07:19;;;;;;;3.60;1.40;;;;;;;;;;5052023;28;20021;-55
2023/07/10 13:09:57;;;;;;;2.60;1.30;;;;;;;;;;5051942;28;20037;-55
2023/07/10 13:12:25;;;;;;;2.08;1.38;;;;;;;;;;5051906;28;20028;-56
2023/07/10 13:14:52;;;;;;;2.45;1.33;;;;;;;;;;5045969;28;20529;-52
2023/07/10 13:17:23;;;;;;;2.92;1.30;;;;;;;;;;5051904;28;20049;-56
2023/07/10 13:19:50;;;;;;;4.22;1.40;;;;;;;;;;5051898;28;20021;-54
2023/07/10 13:22:17;;;;;;;4.32;1.33;;;;;;;;;;5051801;28;20060;-55
2023/07/10 13:24:44;;;;;;;2.22;1.20;;;;;;;;;;5051812;28;20107;-56
2023/07/10 13:27:13;;;;;;;3.03;1.35;;;;;;;;;;5051811;28;20021;-56
2023/07/10 13:29:40;;;;;;;3.13;1.20;;;;;;;;;;5051746;28;20502;-55
2023/07/10 13:32:11;;;;;;;1.65;1.30;;;;;;;;;;5051654;28;20124;-56
2023/07/10 13:34:38;;;;;;;2.95;1.58;;;;;;;;;;5051648;28;20364;-55
2023/07/10 13:37:32;;;;;;;3.28;1.48;;;;;;;;;;5033406;28;20020;-55
2023/07/10 13:39:59;;;;;;;2.72;1.30;;;;;;;;;;5049051;28;20040;-55
2023/07/10 13:42:26;;;;;;;3.13;1.35;;;;;;;;;;5051537;28;20017;-54
2023/07/10 13:44:54;;;;;;;1.80;1.38;;;;;;;;;;5051492;28;20511;-55
2023/07/10 13:47:25;;;;;;;3.40;1.30;;;;;;;;;;5051314;28;20040;-55
2023/07/10 13:49:52;;;;;;;2.70;1.42;;;;;;;;;;5051577;28;20025;-56
2023/07/10 13:52:21;;;;;;;1.95;1.20;;;;;;;;;;5051451;28;20025;-54
2023/07/10 13:54:49;;;;;;;2.35;1.40;;;;;;;;;;5051490;28;20029;-55
2023/07/10 13:57:17;;;;;;;3.53;1.52;;;;;;;;;;5051418;28;20498;-55
2023/07/10 13:59:44;;;;;;;5.43;1.40;;;;;;;;;;5051672;28;20017;-55
2023/07/10 14:02:30;;;;;;;3.97;1.48;;;;;;;;;;5051389;28;20428;-56
2023/07/10 14:04:58;;;;;;;3.40;1.30;;;;;;;;;;5051324;28;20033;-56
2023/07/10 14:07:26;;;;;;;2.47;1.17;;;;;;;;;;5051416;28;20025;-55
2023/07/10 14:09:58;;;;;;;3.85;1.63;;;;;;;;;;5051380;28;20025;-55
2023/07/10 14:12:26;;;;;;;3.83;1.27;;;;;;;;;;5051068;28;20025;-55
2023/07/10 14:14:53;;;;;;;2.55;1.40;;;;;;;;;;5055144;28;20192;-56
2023/07/10 14:17:26;;;;;;;3.78;1.20;;;;;;;;;;5055284;28;20025;-54
2023/07/10 14:19:53;;;;;;;2.42;1.05;;;;;;;;;;5055196;28;20561;-54
2023/07/10 14:22:21;;;;;;;2.28;1.30;;;;;;;;;;5055353;28;20415;-55
2023/07/10 14:24:48;;;;;;;6.50;1.40;;;;;;;;;;5055007;28;20029;-54
2023/07/10 14:27:15;;;;;;;3.47;1.30;;;;;;;;;;5055126;28;20021;-55
2023/07/10 14:29:42;;;;;;;2.10;0.95;;;;;;;;;;5055024;28;20052;-52
2023/07/10 14:32:13;;;;;;;2.42;1.40;;;;;;;;;;5054705;28;20059;-55
2023/07/10 14:34:40;;;;;;;2.07;1.20;;;;;;;;;;5054999;28;20029;-55
2023/07/10 14:37:14;;;;;;;3.88;1.20;;;;;;;;;;5054897;28;20052;-56
2023/07/10 14:39:42;;;;;;;3.33;1.20;;;;;;;;;;5054826;28;20075;-54
2023/07/10 14:42:13;;;;;;;4.53;1.40;;;;;;;;;;5054716;28;20029;-55
2023/07/10 14:44:40;;;;;;;5.20;1.20;;;;;;;;;;5054750;28;20044;-55
2023/07/10 14:47:16;;;;;;;2.97;1.33;;;;;;;;;;5054748;28;20017;-55
2023/07/10 14:49:43;;;;;;;5.95;1.00;;;;;;;;;;5054713;28;20471;-55
2023/07/10 14:52:20;;;;;;;4.80;1.30;;;;;;;;;;5054594;28;20021;-55
2023/07/10 14:54:50;;;;;;;1.65;1.02;;;;;;;;;;5054575;28;20021;-54
2023/07/10 14:57:30;;;;;;;1.70;1.00;;;;;;;;;;5054342;28;20104;-53